createdAt,value
2023-04-29T00:00:33.259Z,7.93
2023-04-29T00:03:55.161Z,8.00
2023-04-29T00:07:16.641Z,8.73
2023-04-29T00:10:39.535Z,8.80
2023-04-29T00:14:02.378Z,8.03
2023-04-29T00:17:23.937Z,8.20
2023-04-29T00:20:45.356Z,9.00
2023-04-29T00:24:07.563Z,9.77
2023-04-29T00:27:29.119Z,9.93
2023-04-29T00:30:51.842Z,9.63
2023-04-29T00:34:13.092Z,8.43
2023-04-29T00:37:34.529Z,9.57
2023-04-29T00:40:56.703Z,9.30
2023-04-29T00:44:18.164Z,8.80
2023-04-29T00:47:40.886Z,9.83
2023-04-29T00:51:02.774Z,9.07
2023-04-29T00:54:24.385Z,10.10
2023-04-29T00:57:48.213Z,11.53
2023-04-29T01:01:09.982Z,8.73
2023-04-29T01:04:32.678Z,9.50
2023-04-29T01:08:05.439Z,8.87
2023-04-29T01:11:35.648Z,8.57
2023-04-29T01:15:11.741Z,8.37
2023-04-29T01:18:37.642Z,8.60
2023-04-29T01:22:00.161Z,8.70
2023-04-29T01:25:22.938Z,8.97
2023-04-29T01:28:52.084Z,8.30
2023-04-29T01:32:18.452Z,9.20
2023-04-29T01:35:51.629Z,10.00
2023-04-29T01:39:16.342Z,9.00
2023-04-29T01:42:43.115Z,9.20
2023-04-29T01:46:07.311Z,9.63
2023-04-29T01:49:29.808Z,9.30
2023-04-29T01:52:51.195Z,10.00
2023-04-29T01:56:12.582Z,10.70
2023-04-29T01:59:36.362Z,10.60
2023-04-29T02:02:58.031Z,9.97
2023-04-29T02:06:19.533Z,9.57
2023-04-29T02:09:40.994Z,9.03
2023-04-29T02:13:02.710Z,10.73
2023-04-29T02:16:25.487Z,10.70
2023-04-29T02:19:46.876Z,10.63
2023-04-29T02:23:08.421Z,10.40
2023-04-29T02:26:29.910Z,10.87
2023-04-29T02:29:51.904Z,11.27
2023-04-29T02:33:14.879Z,11.77
2023-04-29T02:36:36.374Z,11.87
2023-04-29T02:39:57.882Z,13.10
2023-04-29T02:43:19.572Z,11.77
2023-04-29T02:46:45.285Z,12.43
2023-04-29T02:50:09.022Z,11.50
2023-04-29T02:53:30.592Z,12.17
2023-04-29T02:56:51.985Z,11.60
2023-04-29T03:00:13.852Z,12.80
2023-04-29T03:03:35.345Z,11.17
2023-04-29T03:06:58.270Z,10.73
2023-04-29T03:10:19.754Z,11.40
2023-04-29T03:13:41.027Z,11.83
2023-04-29T03:17:02.764Z,10.93
2023-04-29T03:20:24.722Z,12.20
2023-04-29T03:23:47.483Z,11.40
2023-04-29T03:27:09.176Z,10.77
2023-04-29T03:30:31.730Z,11.17
2023-04-29T03:33:53.531Z,11.87
2023-04-29T03:37:16.436Z,10.90
2023-04-29T03:40:39.902Z,11.33
2023-04-29T03:44:01.453Z,10.97
2023-04-29T03:47:22.726Z,11.20
2023-04-29T03:50:43.891Z,10.47
2023-04-29T03:54:05.359Z,11.27
2023-04-29T03:57:28.073Z,10.90
2023-04-29T04:00:49.488Z,10.43
2023-04-29T04:04:11.220Z,11.20
2023-04-29T04:07:32.933Z,10.90
2023-04-29T04:10:54.298Z,11.17
2023-04-29T04:14:16.954Z,10.90
2023-04-29T04:17:38.365Z,11.27
2023-04-29T04:21:05.834Z,11.57
2023-04-29T04:24:27.264Z,10.47
2023-04-29T04:27:48.735Z,11.37
2023-04-29T04:31:11.357Z,10.90
2023-04-29T04:34:32.872Z,10.83
2023-04-29T04:37:54.595Z,10.87
2023-04-29T04:41:16.082Z,10.37
2023-04-29T04:44:37.533Z,10.70
2023-04-29T04:48:00.189Z,10.67
2023-04-29T04:51:21.870Z,9.13
2023-04-29T04:54:47.157Z,11.27
2023-04-29T04:58:08.388Z,9.67
2023-04-29T05:01:29.807Z,10.00
2023-04-29T05:04:52.614Z,10.47
2023-04-29T05:08:13.926Z,10.03
2023-04-29T05:11:35.572Z,9.93
2023-04-29T05:14:56.789Z,10.47
2023-04-29T05:18:18.384Z,10.30
2023-04-29T05:21:42.057Z,9.77
2023-04-29T05:25:03.717Z,9.30
2023-04-29T05:28:27.572Z,10.57
2023-04-29T05:31:50.130Z,9.70
2023-04-29T05:35:11.536Z,10.50
2023-04-29T05:38:34.465Z,9.67
2023-04-29T05:41:56.311Z,8.93
2023-04-29T05:45:18.028Z,9.40
2023-04-29T05:48:39.457Z,8.77
2023-04-29T05:52:04.081Z,8.10
2023-04-29T05:55:26.658Z,8.00
2023-04-29T05:58:48.000Z,7.80
2023-04-29T06:02:10.879Z,7.73
2023-04-29T06:05:32.562Z,7.53
2023-04-29T06:08:54.030Z,7.60
2023-04-29T06:12:17.461Z,7.57
2023-04-29T06:15:38.950Z,7.60
2023-04-29T06:19:00.480Z,6.97
2023-04-29T06:22:22.234Z,7.03
2023-04-29T06:25:44.039Z,6.80
2023-04-29T06:29:06.924Z,6.57
2023-04-29T06:32:28.192Z,6.63
2023-04-29T06:35:49.644Z,6.77
2023-04-29T06:39:11.246Z,6.23
2023-04-29T06:42:32.537Z,5.73
2023-04-29T06:45:55.151Z,7.00
2023-04-29T06:49:16.196Z,6.50
2023-04-29T06:52:37.561Z,6.70
2023-04-29T06:55:59.013Z,6.27
2023-04-29T06:59:20.630Z,6.10
2023-04-29T07:02:43.587Z,6.10
2023-04-29T07:06:04.862Z,6.23
2023-04-29T07:09:27.519Z,5.60
2023-04-29T07:12:49.069Z,5.87
2023-04-29T07:16:17.058Z,5.53
2023-04-29T07:19:39.790Z,5.27
2023-04-29T07:23:00.988Z,5.10
2023-04-29T07:26:22.679Z,4.80
2023-04-29T07:29:44.170Z,4.20
2023-04-29T07:33:05.683Z,4.77
2023-04-29T07:36:28.656Z,4.77
2023-04-29T07:39:49.771Z,4.17
2023-04-29T07:43:11.550Z,4.70
2023-04-29T07:46:33.085Z,4.87
2023-04-29T07:49:54.472Z,4.27
2023-04-29T07:53:18.047Z,4.33
2023-04-29T07:56:39.322Z,4.73
2023-04-29T08:00:00.897Z,4.40
2023-04-29T08:03:22.776Z,3.90
2023-04-29T08:06:44.927Z,4.20
2023-04-29T08:10:09.157Z,4.70
2023-04-29T08:13:30.509Z,4.40
2023-04-29T08:16:52.002Z,4.63
2023-04-29T08:20:15.082Z,4.33
2023-04-29T08:23:36.465Z,4.40
2023-04-29T08:26:59.163Z,4.10
2023-04-29T08:30:20.394Z,4.63
2023-04-29T08:33:42.244Z,4.97
2023-04-29T08:37:04.037Z,4.40
2023-04-29T08:40:25.291Z,4.60
2023-04-29T08:43:48.489Z,5.03
2023-04-29T08:47:10.099Z,4.97
2023-04-29T08:50:32.277Z,4.87
2023-04-29T08:53:53.760Z,4.63
2023-04-29T08:57:15.459Z,4.37
2023-04-29T09:00:39.327Z,4.27
2023-04-29T09:04:11.056Z,4.73
2023-04-29T09:07:33.935Z,4.63
2023-04-29T09:10:56.499Z,4.90
2023-04-29T09:14:18.091Z,5.60
2023-04-29T09:17:42.946Z,5.00
2023-04-29T09:21:14.384Z,4.80
2023-04-29T09:24:35.835Z,5.00
2023-04-29T09:27:57.583Z,5.47
2023-04-29T09:31:28.924Z,4.53
2023-04-29T09:34:52.224Z,4.73
2023-04-29T09:38:14.854Z,4.97
2023-04-29T09:41:36.132Z,4.60
2023-04-29T09:44:57.503Z,5.13
2023-04-29T09:48:19.130Z,5.33
2023-04-29T09:51:54.444Z,5.03
2023-04-29T09:55:17.265Z,4.63
2023-04-29T09:58:39.105Z,4.50
2023-04-29T10:02:00.678Z,4.73
2023-04-29T10:05:23.435Z,4.10
2023-04-29T10:08:48.701Z,4.43
2023-04-29T10:12:10.990Z,4.50
2023-04-29T10:15:42.978Z,4.20
2023-04-29T10:19:08.706Z,4.17
2023-04-29T10:22:34.586Z,4.53
2023-04-29T10:25:59.988Z,4.37
2023-04-29T10:29:23.338Z,3.60
2023-04-29T10:32:51.169Z,3.87
2023-04-29T10:36:14.934Z,4.00
2023-04-29T10:39:43.761Z,4.10
2023-04-29T10:43:06.734Z,4.23
2023-04-29T10:46:28.471Z,3.50
2023-04-29T10:50:06.182Z,4.23
2023-04-29T10:53:28.723Z,3.90
2023-04-29T10:56:51.343Z,3.80
2023-04-29T11:00:23.241Z,3.60
2023-04-29T11:03:50.620Z,4.43
2023-04-29T11:07:28.070Z,3.97
2023-04-29T11:10:53.161Z,4.30
2023-04-29T11:14:15.985Z,4.17
2023-04-29T11:17:39.388Z,4.40
2023-04-29T11:21:13.920Z,4.30
2023-04-29T11:24:36.378Z,4.60
2023-04-29T11:27:59.476Z,4.33
2023-04-29T11:31:21.252Z,4.87
2023-04-29T11:34:44.004Z,5.07
2023-04-29T11:38:05.915Z,4.80
2023-04-29T11:41:27.629Z,4.77
2023-04-29T11:44:52.335Z,4.10
2023-04-29T11:48:19.795Z,4.50
2023-04-29T11:51:42.749Z,3.67
2023-04-29T11:55:04.336Z,3.93
2023-04-29T11:58:26.014Z,3.67
2023-04-29T12:01:47.705Z,4.10
2023-04-29T12:05:09.953Z,4.07
2023-04-29T12:08:34.020Z,4.00
2023-04-29T12:11:55.419Z,3.90
2023-04-29T12:15:17.219Z,4.00
2023-04-29T12:18:38.936Z,3.70
2023-04-29T12:22:00.826Z,3.50
2023-04-29T12:25:26.194Z,3.10
2023-04-29T12:28:47.824Z,2.90
2023-04-29T12:32:13.524Z,2.90
2023-04-29T12:35:36.891Z,2.23
2023-04-29T12:39:00.318Z,2.10
2023-04-29T12:42:22.828Z,2.07
2023-04-29T12:45:43.952Z,2.10
2023-04-29T12:49:06.592Z,2.80
2023-04-29T12:52:28.009Z,2.30
2023-04-29T12:55:49.826Z,2.70
2023-04-29T12:59:12.589Z,3.40
2023-04-29T13:02:33.904Z,3.17
2023-04-29T13:05:55.444Z,3.40
2023-04-29T13:09:18.963Z,3.20
2023-04-29T13:12:40.832Z,3.00
2023-04-29T13:16:03.452Z,3.20
2023-04-29T13:19:43.483Z,3.53
2023-04-29T13:23:06.389Z,3.30
2023-04-29T13:26:27.872Z,3.30
2023-04-29T13:29:49.068Z,2.90
2023-04-29T13:33:13.576Z,2.97
2023-04-29T13:36:35.059Z,2.50
2023-04-29T13:39:57.636Z,2.37
2023-04-29T13:43:30.040Z,2.10
2023-04-29T13:46:58.532Z,1.70
2023-04-29T13:50:50.628Z,1.97
2023-04-29T13:54:37.438Z,1.50
2023-04-29T14:01:26.044Z,1.30
2023-04-29T14:04:50.220Z,1.40
2023-04-29T14:08:12.999Z,1.60
2023-04-29T14:11:36.602Z,1.50
2023-04-29T14:15:00.137Z,2.20
2023-04-29T14:18:22.212Z,1.67
2023-04-29T14:21:43.882Z,1.47
2023-04-29T14:25:08.383Z,1.37
2023-04-29T14:28:29.857Z,1.60
2023-04-29T14:31:51.543Z,1.80
2023-04-29T14:35:13.192Z,1.43
2023-04-29T14:38:34.412Z,1.70
2023-04-29T14:41:57.252Z,1.47
2023-04-29T14:45:18.664Z,1.97
2023-04-29T14:48:40.222Z,1.60
2023-04-29T14:52:02.002Z,1.37
2023-04-29T14:55:23.361Z,1.63
2023-04-29T14:58:46.202Z,1.40
2023-04-29T15:02:07.991Z,1.50
2023-04-29T15:05:30.419Z,1.30
2023-04-29T15:08:52.323Z,1.23
2023-04-29T15:12:14.329Z,1.37
2023-04-29T15:15:37.247Z,1.13
2023-04-29T15:18:59.177Z,1.37
2023-04-29T15:22:20.663Z,1.00
2023-04-29T15:25:42.164Z,1.13
2023-04-29T15:29:03.992Z,1.33
2023-04-29T15:32:31.468Z,1.93
2023-04-29T15:35:53.974Z,0.90
2023-04-29T15:39:16.545Z,0.93
2023-04-29T15:42:38.103Z,1.50
2023-04-29T15:46:00.146Z,1.20
2023-04-29T15:49:24.425Z,1.37
2023-04-29T15:52:46.449Z,1.40
2023-04-29T15:56:07.748Z,1.70
2023-04-29T15:59:29.467Z,1.40
2023-04-29T16:02:50.939Z,1.20
2023-04-29T16:06:13.825Z,2.17
2023-04-29T16:09:36.169Z,1.60
2023-04-29T16:12:57.728Z,1.63
2023-04-29T16:16:19.412Z,1.70
2023-04-29T16:19:41.172Z,1.40
2023-04-29T16:23:03.735Z,1.77
2023-04-29T16:26:26.178Z,1.70
2023-04-29T16:29:47.736Z,2.00
2023-04-29T16:33:09.157Z,1.80
2023-04-29T16:36:30.497Z,1.80
2023-04-29T16:39:53.333Z,2.00
2023-04-29T16:43:15.286Z,1.90
2023-04-29T16:46:36.591Z,1.57
2023-04-29T16:49:58.060Z,1.53
2023-04-29T16:53:19.572Z,1.93
2023-04-29T16:56:42.381Z,1.73
2023-04-29T17:00:04.170Z,1.60
2023-04-29T17:03:25.467Z,1.80
2023-04-29T17:06:47.173Z,2.17
2023-04-29T17:10:09.606Z,1.70
2023-04-29T17:13:32.184Z,1.97
2023-04-29T17:16:53.706Z,2.13
2023-04-29T17:20:15.137Z,1.63
2023-04-29T17:23:37.480Z,2.03
2023-04-29T17:26:59.744Z,1.33
2023-04-29T17:30:22.459Z,1.93
2023-04-29T17:33:54.680Z,1.80
2023-04-29T17:37:17.503Z,1.40
2023-04-29T17:40:38.805Z,1.80
2023-04-29T17:44:00.233Z,1.40
2023-04-29T17:47:23.319Z,1.40
2023-04-29T17:50:44.783Z,1.00
2023-04-29T17:54:07.673Z,1.17
2023-04-29T17:57:29.559Z,1.00
2023-04-29T18:00:52.158Z,1.30
2023-04-29T18:04:15.056Z,1.60
2023-04-29T18:07:36.276Z,1.30
2023-04-29T18:10:57.461Z,1.23
2023-04-29T18:14:19.092Z,1.20
2023-04-29T18:17:40.693Z,1.60
2023-04-29T18:21:03.556Z,1.40
2023-04-29T18:24:26.015Z,1.50
2023-04-29T18:27:47.987Z,1.00
2023-04-29T18:31:09.538Z,1.20
2023-04-29T18:34:31.149Z,1.57
2023-04-29T18:37:53.589Z,1.80
2023-04-29T18:41:14.975Z,1.70
2023-04-29T18:44:36.473Z,1.70
2023-04-29T18:47:57.882Z,1.40
2023-04-29T18:51:19.372Z,1.03
2023-04-29T18:54:42.316Z,1.23
2023-04-29T18:58:03.777Z,1.63
2023-04-29T19:01:25.781Z,1.40
2023-04-29T19:04:47.094Z,1.30
2023-04-29T19:08:08.423Z,1.40
2023-04-29T19:11:31.469Z,1.93
2023-04-29T19:14:52.799Z,2.17
2023-04-29T19:18:14.850Z,1.50
2023-04-29T19:21:37.286Z,2.07
2023-04-29T19:24:58.533Z,1.70
2023-04-29T19:28:21.418Z,2.23
2023-04-29T19:31:42.836Z,2.07
2023-04-29T19:35:04.550Z,1.83
2023-04-29T19:38:26.001Z,2.00
2023-04-29T19:41:47.454Z,2.00
2023-04-29T19:45:12.462Z,2.00
2023-04-29T19:48:34.245Z,1.70
2023-04-29T19:51:56.003Z,1.50
2023-04-29T19:55:17.886Z,1.70
2023-04-29T19:58:39.356Z,1.27
2023-04-29T20:02:02.257Z,1.40
2023-04-29T20:05:23.893Z,1.83
2023-04-29T20:08:45.451Z,1.80
2023-04-29T20:12:07.009Z,1.67
2023-04-29T20:15:28.391Z,1.47
2023-04-29T20:18:50.853Z,1.33
2023-04-29T20:22:13.293Z,1.60
2023-04-29T20:25:34.912Z,1.43
2023-04-29T20:28:56.432Z,1.90
2023-04-29T20:32:18.361Z,1.60
2023-04-29T20:35:41.319Z,1.50
2023-04-29T20:39:02.748Z,1.70
2023-04-29T20:42:24.338Z,1.50
2023-04-29T20:45:45.947Z,2.53
2023-04-29T20:49:07.362Z,1.80
2023-04-29T20:52:30.508Z,2.13
2023-04-29T20:55:51.684Z,1.67
2023-04-29T20:59:12.819Z,2.33
2023-04-29T21:02:34.304Z,1.97
2023-04-29T21:05:56.341Z,1.90
2023-04-29T21:09:19.011Z,2.07
2023-04-29T21:12:40.636Z,1.57
2023-04-29T21:16:02.245Z,2.00
2023-04-29T21:19:23.801Z,2.47
2023-04-29T21:22:45.790Z,1.77
2023-04-29T21:26:08.237Z,1.90
2023-04-29T21:29:29.705Z,1.80
2023-04-29T21:32:51.179Z,2.00
2023-04-29T21:36:13.136Z,1.90
2023-04-29T21:39:34.609Z,2.10
2023-04-29T21:42:58.859Z,2.20
2023-04-29T21:46:21.046Z,2.50
2023-04-29T21:49:42.562Z,2.07
2023-04-29T21:53:03.665Z,2.43
2023-04-29T21:56:25.122Z,1.90
2023-04-29T21:59:48.979Z,2.27
2023-04-29T22:03:10.905Z,2.33
2023-04-29T22:06:33.369Z,1.97
2023-04-29T22:09:54.757Z,2.50
2023-04-29T22:13:16.652Z,2.03
2023-04-29T22:16:39.368Z,2.23
2023-04-29T22:20:00.681Z,1.90
2023-04-29T22:23:22.589Z,2.07
2023-04-29T22:26:44.073Z,2.73
2023-04-29T22:30:06.544Z,2.03
2023-04-29T22:33:29.834Z,2.27
2023-04-29T22:36:50.917Z,2.80
2023-04-29T22:40:13.654Z,3.13
2023-04-29T22:43:34.872Z,2.63
2023-04-29T22:46:56.516Z,2.93
2023-04-29T22:50:19.634Z,2.97
2023-04-29T22:53:40.836Z,3.23
2023-04-29T22:57:03.489Z,3.10
2023-04-29T23:00:24.726Z,2.97
2023-04-29T23:03:46.161Z,3.30
2023-04-29T23:07:08.955Z,2.70
2023-04-29T23:10:32.626Z,2.70
2023-04-29T23:13:54.643Z,3.70
2023-04-29T23:17:16.085Z,3.17
2023-04-29T23:20:38.002Z,2.67
2023-04-29T23:24:00.715Z,3.20
2023-04-29T23:27:22.039Z,3.00
2023-04-29T23:30:43.791Z,3.23
2023-04-29T23:34:05.393Z,2.97
2023-04-29T23:37:26.508Z,2.67
2023-04-29T23:40:49.266Z,3.17
2023-04-29T23:44:10.797Z,2.93
2023-04-29T23:47:32.300Z,2.90
2023-04-29T23:50:53.684Z,3.10
2023-04-29T23:54:15.018Z,2.90
2023-04-29T23:57:37.846Z,3.13
